createdAt,value
2023-04-06T00:02:26.165Z,752.61
2023-04-06T00:05:32.304Z,553.21
2023-04-06T00:08:39.452Z,490.11
2023-04-06T00:11:45.392Z,465.54
2023-04-06T00:14:54.949Z,444.15
2023-04-06T00:18:00.998Z,436.90
2023-04-06T00:21:08.475Z,462.31
2023-04-06T00:24:14.396Z,441.32
2023-04-06T00:27:21.321Z,440.23
2023-04-06T00:30:29.929Z,420.38
2023-04-06T00:33:37.336Z,408.55
2023-04-06T00:36:43.371Z,392.99
2023-04-06T00:39:50.397Z,390.34
2023-04-06T00:42:56.624Z,391.85
2023-04-06T00:46:08.017Z,396.83
2023-04-06T00:49:14.095Z,393.50
2023-04-06T00:52:21.258Z,395.71
2023-04-06T00:55:28.150Z,402.89
2023-04-06T00:58:39.293Z,404.73
2023-04-06T01:01:49.810Z,415.82
2023-04-06T01:05:21.782Z,420.59
2023-04-06T01:08:32.063Z,417.67
2023-04-06T01:11:52.334Z,430.14
2023-04-06T01:15:02.789Z,436.16
2023-04-06T01:18:15.469Z,442.83
2023-04-06T01:21:31.322Z,441.33
2023-04-06T01:25:03.837Z,451.10
2023-04-06T01:28:15.491Z,464.18
2023-04-06T01:31:36.600Z,475.80
2023-04-06T01:34:42.770Z,477.72
2023-04-06T01:37:49.910Z,470.85
2023-04-06T01:41:06.542Z,468.26
2023-04-06T01:44:24.561Z,476.95
2023-04-06T01:47:43.064Z,463.78
2023-04-06T01:50:51.627Z,462.54
2023-04-06T01:54:02.955Z,463.51
2023-04-06T01:57:32.329Z,453.44
2023-04-06T02:00:48.268Z,443.48
2023-04-06T02:03:56.061Z,436.28
2023-04-06T02:07:02.066Z,449.36
2023-04-06T02:10:17.219Z,445.36
2023-04-06T02:13:27.085Z,451.23
2023-04-06T02:16:35.519Z,438.41
2023-04-06T02:19:41.870Z,463.56
2023-04-06T02:22:48.971Z,452.23
2023-04-06T02:25:54.916Z,450.11
2023-04-06T02:29:04.323Z,431.18
2023-04-06T02:32:12.484Z,443.57
2023-04-06T02:35:19.464Z,415.05
2023-04-06T02:38:29.094Z,412.89
2023-04-06T02:41:35.842Z,570.93
2023-04-06T02:44:45.595Z,650.46
2023-04-06T02:47:52.921Z,474.99
2023-04-06T02:50:58.852Z,443.26
2023-04-06T02:54:05.676Z,377.73
2023-04-06T02:57:12.411Z,350.17
2023-04-06T03:00:27.574Z,341.67
2023-04-06T03:03:33.718Z,345.07
2023-04-06T03:06:40.720Z,355.58
2023-04-06T03:10:00.399Z,393.17
2023-04-06T03:13:14.668Z,523.10
2023-04-06T03:16:42.230Z,561.70
2023-04-06T03:19:49.117Z,511.71
2023-04-06T03:22:56.644Z,575.09
2023-04-06T03:26:08.130Z,629.66
2023-04-06T03:29:14.185Z,635.75
2023-04-06T03:32:23.617Z,690.01
2023-04-06T03:35:29.715Z,706.43
2023-04-06T03:38:38.668Z,736.69
2023-04-06T03:41:54.326Z,789.90
2023-04-06T03:45:21.467Z,917.86
2023-04-06T03:48:33.676Z,1001.49
2023-04-06T03:51:44.248Z,984.62
2023-04-06T03:54:50.143Z,870.99
2023-04-06T03:57:56.896Z,814.18
2023-04-06T04:01:04.216Z,810.98
2023-04-06T04:04:14.365Z,819.32
2023-04-06T04:07:20.358Z,891.16
2023-04-06T04:10:27.614Z,845.69
2023-04-06T04:13:33.648Z,844.40
2023-04-06T04:16:43.207Z,1093.38
2023-04-06T04:19:54.910Z,955.42
2023-04-06T04:23:07.881Z,791.62
2023-04-06T04:26:24.659Z,807.55
2023-04-06T04:29:31.744Z,787.78
2023-04-06T04:32:42.531Z,770.12
2023-04-06T04:35:53.047Z,750.99
2023-04-06T04:39:02.473Z,753.39
2023-04-06T04:42:12.548Z,742.24
2023-04-06T04:45:26.041Z,806.09
2023-04-06T04:48:33.767Z,795.38
2023-04-06T04:51:44.993Z,852.37
2023-04-06T04:54:53.830Z,909.32
2023-04-06T04:58:07.059Z,901.84
2023-04-06T05:01:28.325Z,876.94
2023-04-06T05:04:36.196Z,838.32
2023-04-06T05:07:47.423Z,837.19
2023-04-06T05:11:06.939Z,829.54
2023-04-06T05:14:19.804Z,815.27
2023-04-06T05:17:29.720Z,796.47
2023-04-06T05:20:37.394Z,719.54
2023-04-06T05:23:46.018Z,702.58
2023-04-06T05:26:53.648Z,696.64
2023-04-06T05:30:03.497Z,702.29
2023-04-06T05:33:14.427Z,735.00
2023-04-06T05:36:35.846Z,699.26
2023-04-06T05:39:51.034Z,679.95
2023-04-06T05:42:58.864Z,684.33
2023-04-06T05:46:05.851Z,738.45
2023-04-06T05:49:12.516Z,785.24
2023-04-06T05:52:19.990Z,871.04
2023-04-06T05:55:30.864Z,941.36
2023-04-06T05:58:50.104Z,795.56
2023-04-06T06:02:02.785Z,646.30
2023-04-06T06:05:13.787Z,577.07
2023-04-06T06:08:22.052Z,535.00
2023-04-06T06:11:34.324Z,493.87
2023-04-06T06:14:41.742Z,470.82
2023-04-06T06:17:48.696Z,441.26
2023-04-06T06:21:07.594Z,424.05
2023-04-06T06:24:14.846Z,417.40
2023-04-06T06:27:23.998Z,398.39
2023-04-06T06:30:31.215Z,408.90
2023-04-06T06:33:38.324Z,430.49
2023-04-06T06:36:47.593Z,435.37
2023-04-06T06:39:55.372Z,439.43
2023-04-06T06:43:05.708Z,429.16
2023-04-06T06:46:16.656Z,417.94
2023-04-06T06:49:24.050Z,394.08
2023-04-06T06:52:30.233Z,379.21
2023-04-06T06:55:37.121Z,403.35
2023-04-06T06:58:46.421Z,349.53
2023-04-06T07:01:54.987Z,347.76
2023-04-06T07:05:01.072Z,316.53
2023-04-06T07:08:10.006Z,285.84
2023-04-06T07:11:16.004Z,301.68
2023-04-06T07:14:25.327Z,296.69
2023-04-06T07:17:31.490Z,274.74
2023-04-06T07:20:38.366Z,256.70
2023-04-06T07:23:47.922Z,243.25
2023-04-06T07:26:55.140Z,244.73
2023-04-06T07:30:05.326Z,237.56
2023-04-06T07:33:12.299Z,230.39
2023-04-06T07:36:19.534Z,210.37
2023-04-06T07:39:27.663Z,148.60
2023-04-06T07:42:36.286Z,137.34
2023-04-06T07:45:49.397Z,138.49
2023-04-06T07:49:06.350Z,135.62
2023-04-06T07:52:14.867Z,139.22
2023-04-06T07:55:22.476Z,136.91
2023-04-06T07:58:29.176Z,136.78
2023-04-06T08:01:38.052Z,147.43
2023-04-06T08:04:46.180Z,131.70
2023-04-06T08:07:52.189Z,138.43
2023-04-06T08:11:00.766Z,140.51
2023-04-06T08:14:08.320Z,147.95
2023-04-06T08:17:17.849Z,147.18
2023-04-06T08:20:26.504Z,144.34
2023-04-06T08:23:38.902Z,143.31
2023-04-06T08:26:48.421Z,144.82
2023-04-06T08:29:55.241Z,145.17
2023-04-06T08:33:15.091Z,139.13
2023-04-06T08:36:24.056Z,136.40
2023-04-06T08:39:31.999Z,143.17
2023-04-06T08:42:48.364Z,139.72
2023-04-06T08:45:54.444Z,150.73
2023-04-06T08:49:08.178Z,145.68
2023-04-06T08:52:16.083Z,137.21
2023-04-06T08:55:23.789Z,142.81
2023-04-06T08:58:40.872Z,149.92
2023-04-06T09:01:50.562Z,152.82
2023-04-06T09:04:59.943Z,148.72
2023-04-06T09:08:07.950Z,145.40
2023-04-06T09:11:15.361Z,146.00
2023-04-06T09:14:44.844Z,162.74
2023-04-06T09:17:50.872Z,170.45
2023-04-06T09:21:08.031Z,181.69
2023-04-06T09:24:16.516Z,145.16
2023-04-06T09:27:36.173Z,145.11
2023-04-06T09:30:53.309Z,160.92
2023-04-06T09:34:03.379Z,163.92
2023-04-06T09:37:24.898Z,172.96
2023-04-06T09:40:31.946Z,173.87
2023-04-06T09:43:38.011Z,165.85
2023-04-06T09:46:59.609Z,176.69
2023-04-06T09:50:09.767Z,158.67
2023-04-06T09:53:23.477Z,161.50
2023-04-06T09:56:37.781Z,186.81
2023-04-06T09:59:56.012Z,175.77
2023-04-06T10:03:12.462Z,179.04
2023-04-06T10:06:26.891Z,190.10
2023-04-06T10:09:37.426Z,192.84
2023-04-06T10:13:00.295Z,202.21
2023-04-06T10:16:08.036Z,228.64
2023-04-06T10:19:28.929Z,186.24
2023-04-06T10:22:52.125Z,171.23
2023-04-06T10:26:06.002Z,178.51
2023-04-06T10:29:13.302Z,185.59
2023-04-06T10:32:20.214Z,185.69
2023-04-06T10:35:29.029Z,205.45
2023-04-06T10:38:42.063Z,201.40
2023-04-06T10:41:53.608Z,194.09
2023-04-06T10:45:01.024Z,236.15
2023-04-06T10:48:20.046Z,201.53
2023-04-06T10:51:32.262Z,182.22
2023-04-06T10:54:43.167Z,177.23
2023-04-06T10:57:59.959Z,182.99
2023-04-06T11:01:21.545Z,175.81
2023-04-06T11:04:29.500Z,173.87
2023-04-06T11:07:35.507Z,192.76
2023-04-06T11:10:42.302Z,198.82
2023-04-06T11:13:54.598Z,173.26
2023-04-06T11:17:01.443Z,158.68
2023-04-06T11:20:16.502Z,205.12
2023-04-06T11:23:29.655Z,170.00
2023-04-06T11:26:35.887Z,188.39
2023-04-06T11:29:47.236Z,187.82
2023-04-06T11:32:53.478Z,168.65
2023-04-06T11:36:02.211Z,155.03
2023-04-06T11:39:08.498Z,159.61
2023-04-06T11:42:16.605Z,166.14
2023-04-06T11:45:25.614Z,181.88
2023-04-06T11:48:32.825Z,159.97
2023-04-06T11:51:41.372Z,184.88
2023-04-06T11:54:50.075Z,176.48
2023-04-06T11:57:56.072Z,159.49
2023-04-06T12:01:10.731Z,180.64
2023-04-06T12:04:16.718Z,182.70
2023-04-06T12:07:23.565Z,155.61
2023-04-06T12:10:29.564Z,171.16
2023-04-06T12:13:36.356Z,157.35
2023-04-06T12:16:45.428Z,148.20
2023-04-06T12:19:52.166Z,131.12
2023-04-06T12:23:00.928Z,132.86
2023-04-06T12:26:12.951Z,121.07
2023-04-06T12:29:19.418Z,121.27
2023-04-06T12:32:28.937Z,151.55
2023-04-06T12:35:42.834Z,139.59
2023-04-06T12:38:55.968Z,189.75
2023-04-06T12:42:02.806Z,214.94
2023-04-06T12:45:13.485Z,205.94
2023-04-06T12:48:22.592Z,225.32
2023-04-06T12:51:32.400Z,230.57
2023-04-06T12:54:38.434Z,151.41
2023-04-06T12:57:45.328Z,124.56
2023-04-06T13:00:51.945Z,135.97
2023-04-06T13:04:05.006Z,127.90
2023-04-06T13:07:11.121Z,126.49
2023-04-06T13:10:18.098Z,136.11
2023-04-06T13:13:28.600Z,129.21
2023-04-06T13:16:35.429Z,139.66
2023-04-06T13:19:43.998Z,154.14
2023-04-06T13:22:50.676Z,190.66
2023-04-06T13:26:04.440Z,154.06
2023-04-06T13:29:11.604Z,147.45
2023-04-06T13:32:17.454Z,151.78
2023-04-06T13:35:27.591Z,133.18
2023-04-06T13:38:34.907Z,175.28
2023-04-06T13:41:41.662Z,179.11
2023-04-06T13:44:52.012Z,181.70
2023-04-06T13:47:58.775Z,178.49
2023-04-06T13:51:15.870Z,170.21
2023-04-06T13:54:23.877Z,183.68
2023-04-06T13:57:30.979Z,194.85
2023-04-06T14:00:43.294Z,191.51
2023-04-06T14:03:50.007Z,199.06
2023-04-06T14:06:59.758Z,205.94
2023-04-06T14:10:14.873Z,212.70
2023-04-06T14:13:21.847Z,242.31
2023-04-06T14:16:28.809Z,239.55
2023-04-06T14:19:37.399Z,257.62
2023-04-06T14:22:46.374Z,240.73
2023-04-06T14:25:53.115Z,283.83
2023-04-06T14:28:59.116Z,302.52
2023-04-06T14:32:05.816Z,285.16
2023-04-06T14:35:14.276Z,329.69
2023-04-06T14:38:23.674Z,359.56
2023-04-06T14:41:29.530Z,308.38
2023-04-06T14:44:38.488Z,251.01
2023-04-06T14:47:44.419Z,228.46
2023-04-06T14:50:57.726Z,211.87
2023-04-06T14:54:16.451Z,217.80
2023-04-06T14:57:23.220Z,205.45
2023-04-06T15:00:29.344Z,219.04
2023-04-06T15:03:39.148Z,242.85
2023-04-06T15:06:45.084Z,249.86
2023-04-06T15:09:54.660Z,232.97
2023-04-06T15:13:00.702Z,227.80
2023-04-06T15:16:09.021Z,285.28
2023-04-06T15:19:15.377Z,242.00
2023-04-06T15:22:24.884Z,221.85
2023-04-06T15:25:36.087Z,241.27
2023-04-06T15:28:43.270Z,289.12
2023-04-06T15:31:49.753Z,284.73
2023-04-06T15:35:09.053Z,231.75
2023-04-06T15:38:26.234Z,230.08
2023-04-06T15:41:40.576Z,254.95
2023-04-06T15:44:46.835Z,230.61
2023-04-06T15:47:54.193Z,245.97
2023-04-06T15:51:01.829Z,226.06
2023-04-06T15:54:09.696Z,246.51
2023-04-06T15:57:26.618Z,242.25
2023-04-06T16:00:33.786Z,236.35
2023-04-06T16:03:40.035Z,241.66
2023-04-06T16:06:46.839Z,269.98
2023-04-06T16:09:56.855Z,291.49
2023-04-06T16:13:06.343Z,308.15
2023-04-06T16:16:13.034Z,290.97
2023-04-06T16:19:21.783Z,263.26
2023-04-06T16:22:29.001Z,259.70
2023-04-06T16:25:35.901Z,270.59
2023-04-06T16:28:44.585Z,299.26
2023-04-06T16:31:51.402Z,286.92
2023-04-06T16:34:57.619Z,287.86
2023-04-06T16:38:04.618Z,301.27
2023-04-06T16:41:17.445Z,324.02
2023-04-06T16:44:27.506Z,301.98
2023-04-06T16:47:33.459Z,279.56
2023-04-06T16:50:40.254Z,254.44
2023-04-06T16:53:47.754Z,239.67
2023-04-06T16:56:54.669Z,251.32
2023-04-06T17:00:05.763Z,259.46
2023-04-06T17:03:19.102Z,240.64
2023-04-06T17:06:26.016Z,229.23
2023-04-06T17:12:59.946Z,230.76
2023-04-06T17:16:10.339Z,210.96
2023-04-06T17:19:16.492Z,222.32
2023-04-06T17:22:24.613Z,226.52
2023-04-06T17:25:35.936Z,233.53
2023-04-06T17:28:42.776Z,251.14
2023-04-06T17:31:54.058Z,236.13
2023-04-06T17:35:00.822Z,223.16
2023-04-06T17:38:08.519Z,232.76
2023-04-06T17:41:17.512Z,225.91
2023-04-06T17:44:24.545Z,234.16
2023-04-06T17:47:36.374Z,246.98
2023-04-06T17:50:47.274Z,244.40
2023-04-06T17:53:55.078Z,236.14
2023-04-06T17:57:02.163Z,234.70
2023-04-06T18:00:12.497Z,249.76
2023-04-06T18:03:23.417Z,258.68
2023-04-06T18:06:33.122Z,268.56
2023-04-06T18:09:46.542Z,283.90
2023-04-06T18:12:54.119Z,276.20
2023-04-06T18:16:10.136Z,323.70
2023-04-06T18:19:19.656Z,375.05
2023-04-06T18:22:25.604Z,411.42
2023-04-06T18:25:35.050Z,381.44
2023-04-06T18:28:41.028Z,333.39
2023-04-06T18:31:50.854Z,345.63
2023-04-06T18:35:00.949Z,334.46
2023-04-06T18:38:08.045Z,326.34
2023-04-06T18:41:16.583Z,329.16
2023-04-06T18:44:26.832Z,308.03
2023-04-06T18:47:32.858Z,295.90
2023-04-06T18:50:42.275Z,276.63
2023-04-06T18:53:51.187Z,289.94
2023-04-06T18:56:58.308Z,329.07
2023-04-06T19:00:13.979Z,331.20
2023-04-06T19:03:22.433Z,341.68
2023-04-06T19:06:31.510Z,393.27
2023-04-06T19:09:43.322Z,366.46
2023-04-06T19:12:50.019Z,351.04
2023-04-06T19:15:57.319Z,375.98
2023-04-06T19:19:03.935Z,380.45
2023-04-06T19:22:15.274Z,361.74
2023-04-06T19:25:22.303Z,374.70
2023-04-06T19:28:29.283Z,382.69
2023-04-06T19:31:45.128Z,410.77
2023-04-06T19:34:52.091Z,503.10
2023-04-06T19:38:04.993Z,505.76
2023-04-06T19:41:12.388Z,456.98
2023-04-06T19:44:18.413Z,458.45
2023-04-06T19:47:25.577Z,411.11
2023-04-06T19:50:31.644Z,425.41
2023-04-06T19:53:41.316Z,407.71
2023-04-06T19:56:48.252Z,398.56
2023-04-06T19:59:56.542Z,446.26
2023-04-06T20:03:03.129Z,470.47
2023-04-06T20:06:15.205Z,443.47
2023-04-06T20:09:24.734Z,422.81
2023-04-06T20:12:31.897Z,391.26
2023-04-06T20:15:38.273Z,412.22
2023-04-06T20:18:46.542Z,444.09
2023-04-06T20:21:52.524Z,496.62
2023-04-06T20:25:10.733Z,465.17
2023-04-06T20:28:24.198Z,477.88
2023-04-06T20:31:32.029Z,474.26
2023-04-06T20:34:38.723Z,502.87
2023-04-06T20:37:48.171Z,512.11
2023-04-06T20:41:00.141Z,515.76
2023-04-06T20:44:09.380Z,505.82
2023-04-06T20:47:15.424Z,532.12
2023-04-06T20:50:22.800Z,522.08
2023-04-06T20:53:28.883Z,504.42
2023-04-06T20:56:40.062Z,484.37
2023-04-06T20:59:48.209Z,445.35
2023-04-06T21:02:56.592Z,449.23
2023-04-06T21:06:02.933Z,419.35
2023-04-06T21:09:09.779Z,371.91
2023-04-06T21:12:19.971Z,382.89
2023-04-06T21:15:26.739Z,393.34
2023-04-06T21:18:34.579Z,385.16
2023-04-06T21:21:41.615Z,401.26
2023-04-06T21:24:47.893Z,456.12
2023-04-06T21:27:58.813Z,452.62
2023-04-06T21:31:11.072Z,458.06
2023-04-06T21:34:18.418Z,464.30
2023-04-06T21:37:24.834Z,394.15
2023-04-06T21:40:34.619Z,425.98
2023-04-06T21:43:43.546Z,417.37
2023-04-06T21:46:50.242Z,477.49
2023-04-06T21:49:56.145Z,445.41
2023-04-06T21:53:03.072Z,449.76
2023-04-06T21:56:09.538Z,463.95
2023-04-06T21:59:18.891Z,422.08
2023-04-06T22:02:32.635Z,445.68
2023-04-06T22:05:41.244Z,420.59
2023-04-06T22:08:49.568Z,429.43
2023-04-06T22:11:56.308Z,673.13
2023-04-06T22:15:04.971Z,454.99
2023-04-06T22:18:11.996Z,443.43
2023-04-06T22:21:18.036Z,424.38
2023-04-06T22:24:24.841Z,439.87
2023-04-06T22:27:31.142Z,432.52
2023-04-06T22:30:40.482Z,425.54
2023-04-06T22:33:46.631Z,431.41
2023-04-06T22:36:53.251Z,422.06
2023-04-06T22:39:59.182Z,407.37
2023-04-06T22:43:05.827Z,432.38
2023-04-06T22:46:14.361Z,418.60
2023-04-06T22:49:21.092Z,535.03
2023-04-06T22:52:27.278Z,576.17
2023-04-06T22:55:41.166Z,420.91
2023-04-06T22:58:47.368Z,417.61
2023-04-06T23:02:00.069Z,402.49
2023-04-06T23:05:13.290Z,391.90
2023-04-06T23:08:20.360Z,386.49
2023-04-06T23:11:26.249Z,390.07
2023-04-06T23:14:33.035Z,395.75
2023-04-06T23:17:42.009Z,381.80
2023-04-06T23:20:48.757Z,388.25
2023-04-06T23:23:54.610Z,385.86
2023-04-06T23:27:01.580Z,398.00
2023-04-06T23:30:08.903Z,388.01
2023-04-06T23:33:18.337Z,396.83
2023-04-06T23:36:24.313Z,388.98
2023-04-06T23:39:31.268Z,378.39
2023-04-06T23:42:37.190Z,371.53
2023-04-06T23:45:44.787Z,396.36
2023-04-06T23:48:53.487Z,391.42
2023-04-06T23:52:00.233Z,376.92
2023-04-06T23:55:11.438Z,376.42
2023-04-06T23:58:18.194Z,384.99
